Time;durP1;ratioP1;P1;durP2;ratioP2;P2;SDS_P1;SDS_P2;PMS_P1;PMS_P2;Temp;Humidity;BMP_temperature;BMP_pressure;BME280_temperature;BME280_humidity;BME280_pressure;Samples;Min_cycle;Max_cycle;Signal;HPM_P1;HPM_P2
2021/04/26 00:01:25;;;;;;;22.08;12.73;;;230.90;2073.60;;;;;;4940443;29;19917;-86
2021/04/26 00:04:20;;;;;;;30.80;15.82;;;230.80;2124.80;;;;;;4969024;28;20034;-87
2021/04/26 00:06:55;;;;;;;38.20;17.92;;;230.90;2124.80;;;;;;4947039;28;20038;-86
2021/04/26 00:09:57;;;;;;;29.98;16.95;;;230.90;2124.80;;;;;;4977585;28;20027;-86
2021/04/26 00:12:31;;;;;;;48.78;27.45;;;230.80;2099.20;;;;;;4977206;28;20058;-87
2021/04/26 00:15:01;;;;;;;53.20;27.75;;;230.60;2176.00;;;;;;4977491;28;20034;-86
2021/04/26 00:17:31;;;;;;;45.85;24.92;;;230.40;2201.60;;;;;;4961706;28;20144;-85
2021/04/26 00:20:18;;;;;;;46.38;22.52;;;230.70;2150.40;;;;;;4981597;28;20049;-86
2021/04/26 00:22:52;;;;;;;29.05;16.23;;;230.80;2150.40;;;;;;5017072;28;20041;-85
2021/04/26 00:25:58;;;;;;;24.15;14.95;;;230.70;2150.40;;;;;;5015930;28;20052;-85
2021/04/26 00:28:27;;;;;;;25.00;14.98;;;230.60;2124.80;;;;;;5032161;28;20029;-86
2021/04/26 00:31:18;;;;;;;20.00;11.25;;;230.70;2150.40;;;;;;5033120;28;20146;-85
2021/04/26 00:33:49;;;;;;;20.35;10.35;;;230.70;2099.20;;;;;;5031451;28;20038;-86
2021/04/26 00:37:05;;;;;;;17.65;10.27;;;230.60;2150.40;;;;;;5033314;28;20033;-85
2021/04/26 00:39:41;;;;;;;20.98;10.52;;;230.60;2124.80;;;;;;5033040;28;20077;-85
2021/04/26 00:42:25;;;;;;;29.00;13.88;;;230.70;2124.80;;;;;;5033121;28;20021;-86
2021/04/26 00:44:57;;;;;;;40.72;20.00;;;230.60;2176.00;;;;;;5015682;28;20084;-85
2021/04/26 00:47:27;;;;;;;35.67;17.67;;;230.50;2176.00;;;;;;5030689;28;20033;-85
2021/04/26 00:50:12;;;;;;;25.08;14.55;;;230.40;2227.20;;;;;;5034709;28;20167;-85
2021/04/26 00:53:02;;;;;;;40.88;23.30;;;205.60;2252.80;;;;;;5033558;28;20120;-85
2021/04/26 00:55:55;;;;;;;35.55;18.88;;;205.70;2252.80;;;;;;5034868;28;20030;-85
2021/04/26 00:58:36;;;;;;;42.97;23.25;;;205.50;2252.80;;;;;;5033396;28;20021;-85
2021/04/26 01:01:31;;;;;;;72.93;38.47;;;205.60;2252.80;;;;;;5034538;28;20025;-85
2021/04/26 01:04:12;;;;;;;65.47;35.22;;;205.60;2252.80;;;;;;5033491;28;20350;-85
2021/04/26 01:07:16;;;;;;;43.03;25.95;;;205.70;2252.80;;;;;;5034981;28;20025;-86
2021/04/26 01:09:49;;;;;;;53.67;27.33;;;205.60;2252.80;;;;;;5016071;28;20082;-85
2021/04/26 01:12:59;;;;;;;39.60;20.42;;;205.60;2252.80;;;;;;5034276;28;20067;-86
2021/04/26 01:16:12;;;;;;;54.05;29.83;;;205.70;2252.80;;;;;;5010535;28;20358;-85
2021/04/26 01:19:15;;;;;;;27.77;15.60;;;205.70;2252.80;;;;;;5033788;28;20084;-85
2021/04/26 01:22:22;;;;;;;17.15;9.82;;;230.40;2252.80;;;;;;5033968;28;20034;-85
2021/04/26 01:25:17;;;;;;;61.55;29.05;;;230.40;2252.80;;;;;;5033963;28;20457;-85
2021/04/26 01:27:59;;;;;;;50.53;24.42;;;230.40;2201.60;;;;;;5000906;28;20481;-85
2021/04/26 01:31:12;;;;;;;27.30;13.90;;;205.70;2252.80;;;;;;5033313;28;20539;-85
2021/04/26 01:34:25;;;;;;;34.85;16.13;;;205.60;2252.80;;;;;;5009868;28;20025;-85
2021/04/26 01:37:24;;;;;;;21.10;10.48;;;205.70;2252.80;;;;;;5014233;28;20060;-85
2021/04/26 01:40:09;;;;;;;30.70;11.82;;;230.40;2252.80;;;;;;5033365;28;20095;-85
2021/04/26 01:42:48;;;;;;;25.08;12.23;;;230.50;2150.40;;;;;;5032631;28;20152;-85
2021/04/26 01:45:29;;;;;;;34.92;15.73;;;230.60;2099.20;;;;;;5033882;28;20095;-85
2021/04/26 01:48:19;;;;;;;29.38;15.80;;;230.60;2073.60;;;;;;5033021;28;20033;-85
2021/04/26 01:50:53;;;;;;;23.77;12.55;;;230.50;2099.20;;;;;;5016125;28;20037;-85
2021/04/26 01:53:48;;;;;;;29.73;14.02;;;230.60;2073.60;;;;;;5015133;28;20033;-86
2021/04/26 01:56:37;;;;;;;25.63;13.35;;;230.50;2073.60;;;;;;5033159;28;20032;-86
2021/04/26 01:59:18;;;;;;;26.67;13.95;;;230.50;2073.60;;;;;;5033968;28;20099;-85
2021/04/26 02:02:30;;;;;;;33.67;15.18;;;230.50;2073.60;;;;;;5003056;28;20045;-85
2021/04/26 02:05:18;;;;;;;29.67;13.00;;;230.40;2099.20;;;;;;5036788;28;20407;-84
2021/04/26 02:08:33;;;;;;;37.55;16.80;;;230.50;2099.20;;;;;;5000356;28;20030;-84
2021/04/26 02:11:43;;;;;;;40.78;16.85;;;230.60;2073.60;;;;;;4991474;28;20029;-86
2021/04/26 02:14:13;;;;;;;42.40;19.15;;;230.50;2073.60;;;;;;5013460;28;20036;-85
2021/04/26 02:17:07;;;;;;;51.38;24.38;;;205.70;2099.20;;;;;;5015668;28;20022;-85
2021/04/26 02:19:40;;;;;;;39.75;20.23;;;205.70;2124.80;;;;;;5011591;28;20480;-85
2021/04/26 02:22:08;;;;;;;45.40;23.83;;;230.40;2124.80;;;;;;5016102;28;20034;-85
2021/04/26 02:24:40;;;;;;;44.45;20.08;;;205.70;2150.40;;;;;;5015274;28;20028;-85
2021/04/26 02:27:56;;;;;;;33.10;15.73;;;205.50;2176.00;;;;;;5016944;28;20017;-85
2021/04/26 02:30:23;;;;;;;30.45;15.73;;;205.40;2227.20;;;;;;5015488;28;20078;-84
2021/04/26 02:36:57;;;;;;;25.98;12.20;;;205.20;2252.80;;;;;;5033717;28;20101;-85
2021/04/26 02:39:34;;;;;;;18.35;10.05;;;205.40;2176.00;;;;;;5033500;28;20446;-85
2021/04/26 02:42:26;;;;;;;19.60;8.70;;;205.70;2124.80;;;;;;5024699;28;20037;-86
2021/04/26 02:45:00;;;;;;;15.07;8.75;;;205.70;2176.00;;;;;;5016747;28;20048;-84
2021/04/26 02:47:50;;;;;;;16.90;10.00;;;205.70;2176.00;;;;;;4984048;28;20103;-85
2021/04/26 02:50:50;;;;;;;23.75;12.10;;;205.60;2176.00;;;;;;5032594;28;20052;-86
2021/04/26 02:53:24;;;;;;;30.30;13.55;;;205.60;2201.60;;;;;;5004503;28;20029;-83
2021/04/26 02:56:45;;;;;;;22.77;13.40;;;205.40;2201.60;;;;;;5023066;28;20037;-84
2021/04/26 03:00:23;;;;;;;22.90;15.23;;;205.40;2201.60;;;;;;5019656;28;20588;-84
2021/04/26 03:03:16;;;;;;;24.17;13.93;;;205.00;2252.80;;;;;;4943752;29;20105;-85
2021/04/26 03:12:35;;;;;;;19.75;12.05;;;204.90;2252.80;;;;;;4956274;29;20075;-85
2021/04/26 03:15:50;;;;;;;23.17;13.20;;;204.80;2252.80;;;;;;5022261;28;20030;-84
2021/04/26 03:19:02;;;;;;;25.10;14.52;;;180.00;2252.80;;;;;;5036052;28;20028;-85
2021/04/26 03:22:15;;;;;;;19.63;10.57;;;180.00;2252.80;;;;;;5029840;28;20034;-85
2021/04/26 03:25:45;;;;;;;32.25;15.73;;;180.10;2252.80;;;;;;5004842;28;20465;-84
2021/04/26 03:29:09;;;;;;;27.25;11.93;;;180.10;2252.80;;;;;;4995197;28;20041;-85
2021/04/26 03:38:56;;;;;;;22.63;10.93;;;204.80;2252.80;;;;;;4975606;28;20514;-84
2021/04/26 03:42:33;;;;;;;17.70;11.15;;;204.90;2252.80;;;;;;4975020;28;20038;-85
2021/04/26 03:45:39;;;;;;;18.05;11.90;;;204.90;2252.80;;;;;;4975183;28;20019;-85
2021/04/26 03:49:14;;;;;;;23.88;14.63;;;205.10;2252.80;;;;;;4974984;28;20109;-85
2021/04/26 03:52:43;;;;;;;26.98;14.90;;;205.20;2252.80;;;;;;4953914;28;20127;-85
2021/04/26 03:55:29;;;;;;;27.92;15.43;;;205.20;2252.80;;;;;;4976194;28;20057;-86
2021/04/26 03:58:32;;;;;;;29.20;16.90;;;205.20;2252.80;;;;;;4988001;28;20035;-86
2021/04/26 04:05:20;;;;;;;;;;;180.10;2252.80;;;;;;4995352;28;20489;-85
2021/04/26 04:08:12;;;;;;;48.45;28.58;;;179.90;2252.80;;;;;;4987300;28;19959;-85
2021/04/26 04:11:43;;;;;;;62.03;38.33;;;180.00;2252.80;;;;;;5001907;28;20073;-85
2021/04/26 04:14:53;;;;;;;60.53;34.97;;;204.80;2252.80;;;;;;4961867;28;20042;-85
2021/04/26 04:18:01;;;;;;;26.52;16.10;;;179.70;2252.80;;;;;;4977985;28;20065;-85
2021/04/26 04:21:24;;;;;;;102.47;53.65;;;179.70;2252.80;;;;;;4944506;28;20034;-86
2021/04/26 04:25:13;;;;;;;58.17;34.67;;;179.60;2252.80;;;;;;4918240;29;20071;-85
2021/04/26 04:31:50;;;;;;;24.88;14.48;;;180.10;2252.80;;;;;;4936436;29;20035;-85
2021/04/26 04:35:13;;;;;;;82.35;43.20;;;180.00;2252.80;;;;;;4879224;29;20350;-84
2021/04/26 04:38:53;;;;;;;38.25;23.63;;;204.80;2252.80;;;;;;4842487;29;20089;-86
2021/04/26 04:42:14;;;;;;;37.22;23.55;;;204.90;2252.80;;;;;;4877488;29;20146;-85
2021/04/26 04:45:31;;;;;;;35.63;19.50;;;204.90;2252.80;;;;;;4883701;29;20066;-85
2021/04/26 04:52:21;;;;;;;27.08;15.15;;;204.90;2252.80;;;;;;4889167;29;20077;-85
2021/04/26 04:55:40;;;;;;;21.67;14.27;;;205.00;2252.80;;;;;;4860124;29;20030;-85
2021/04/26 05:02:24;;;;;;;19.00;10.00;;;205.10;2252.80;;;;;;4814367;29;20422;-86
2021/04/26 05:05:34;;;;;;;20.90;9.98;;;205.30;2252.80;;;;;;4832296;29;20063;-85
2021/04/26 05:08:32;;;;;;;18.25;9.25;;;205.40;2252.80;;;;;;4858555;29;20033;-85
2021/04/26 05:11:26;;;;;;;18.05;10.70;;;205.60;2227.20;;;;;;4918093;28;20041;-84
2021/04/26 05:14:24;;;;;;;20.95;11.15;;;205.30;2252.80;;;;;;4997123;28;20560;-86
2021/04/26 05:17:33;;;;;;;22.67;11.68;;;205.10;2252.80;;;;;;4997980;28;20065;-85
2021/04/26 05:20:59;;;;;;;22.00;12.60;;;205.20;2252.80;;;;;;5012323;28;20022;-86
2021/04/26 05:24:01;;;;;;;32.67;15.07;;;205.20;2252.80;;;;;;5012514;28;20393;-85
2021/04/26 05:26:36;;;;;;;40.78;24.48;;;205.50;2252.80;;;;;;5012132;28;20061;-84
2021/04/26 05:29:21;;;;;;;46.67;28.75;;;205.20;2252.80;;;;;;5012167;28;20041;-86
2021/04/26 05:31:58;;;;;;;52.80;30.85;;;230.50;2252.80;;;;;;4995442;28;20627;-84
2021/04/26 05:34:32;;;;;;;64.22;37.13;;;230.70;2252.80;;;;;;4995974;28;20469;-86
2021/04/26 05:37:10;;;;;;;51.47;29.85;;;230.80;2252.80;;;;;;4995625;28;20025;-85
2021/04/26 05:39:59;;;;;;;48.45;29.45;;;230.80;2252.80;;;;;;5010655;28;20373;-85
2021/04/26 05:42:31;;;;;;;49.95;27.80;;;230.70;2252.80;;;;;;4978772;28;20551;-86
2021/04/26 05:45:21;;;;;;;34.30;22.15;;;230.90;2252.80;;;;;;5012613;28;20033;-85
2021/04/26 05:48:06;;;;;;;34.58;20.55;;;230.90;2252.80;;;;;;5015846;28;20022;-86
2021/04/26 05:50:53;;;;;;;46.63;24.15;;;230.90;2252.80;;;;;;5037672;28;20025;-87
2021/04/26 05:53:42;;;;;;;35.50;20.65;;;230.90;2252.80;;;;;;5006852;28;20025;-85
2021/04/26 05:56:16;;;;;;;30.90;17.90;;;230.80;2252.80;;;;;;5044236;28;20049;-86
2021/04/26 05:58:52;;;;;;;26.10;16.45;;;230.80;2252.80;;;;;;5019995;28;20029;-86
2021/04/26 06:01:21;;;;;;;29.38;15.20;;;230.90;2227.20;;;;;;5032002;28;20052;-85
2021/04/26 06:03:48;;;;;;;23.05;14.38;;;231.00;2227.20;;;;;;5035865;28;20050;-82
2021/04/26 06:06:22;;;;;;;48.53;27.13;;;231.10;2176.00;;;;;;5018689;28;20025;-87
2021/04/26 06:09:00;;;;;;;40.00;22.98;;;231.20;2176.00;;;;;;5034958;28;20025;-87
2021/04/26 06:11:55;;;;;;;32.17;16.58;;;231.30;2176.00;;;;;;5034552;28;20033;-86
2021/04/26 06:14:29;;;;;;;27.55;17.67;;;256.00;2227.20;;;;;;5053887;28;20411;-86
2021/04/26 06:17:22;;;;;;;17.88;13.05;;;256.00;2252.80;;;;;;5035916;28;20475;-86
2021/04/26 06:20:03;;;;;;;19.30;10.63;;;256.20;2227.20;;;;;;5031400;28;20021;-86
2021/04/26 06:22:58;;;;;;;19.58;10.65;;;256.30;2176.00;;;;;;5016012;28;20033;-86
2021/04/26 06:25:50;;;;;;;19.73;10.57;;;256.30;2201.60;;;;;;5021218;28;20475;-86
2021/04/26 06:29:17;;;;;;;20.05;10.82;;;256.50;2150.40;;;;;;5014615;28;20029;-86
2021/04/26 06:42:43;;;;;;;19.83;12.93;;;282.10;1971.20;;;;;;4991898;28;20092;-85
2021/04/26 06:51:59;;;;;;;25.02;14.68;;;307.40;1817.60;;;;;;4900102;29;20065;-85
2021/04/26 06:54:53;;;;;;;23.13;12.60;;;307.60;1792.00;;;;;;4883328;29;20041;-86
2021/04/26 06:57:20;;;;;;;23.20;11.25;;;307.70;1766.40;;;;;;4947968;28;20038;-85
2021/04/26 06:59:48;;;;;;;25.23;14.85;;;307.90;1740.80;;;;;;4974693;28;20046;-85
2021/04/26 07:05:59;;;;;;;19.20;11.35;;;332.80;1715.20;;;;;;4862275;29;20462;-86
2021/04/26 07:08:28;;;;;;;16.77;9.80;;;332.90;1740.80;;;;;;4874839;29;20407;-85
2021/04/26 07:10:55;;;;;;;14.23;8.88;;;333.00;1715.20;;;;;;4964785;28;20027;-84
2021/04/26 07:13:22;;;;;;;14.10;9.55;;;333.20;1689.60;;;;;;4948274;28;20133;-85
2021/04/26 07:15:49;;;;;;;22.35;13.13;;;333.40;1689.60;;;;;;4974081;28;20034;-85
2021/04/26 07:18:16;;;;;;;19.35;9.35;;;333.40;1664.00;;;;;;4959578;28;20053;-86
2021/04/26 07:20:42;;;;;;;22.83;15.90;;;333.70;1689.60;;;;;;4975768;28;20145;-86
2021/04/26 07:23:08;;;;;;;16.08;8.90;;;358.40;1638.40;;;;;;4959741;28;20554;-86
2021/04/26 07:25:34;;;;;;;17.88;8.02;;;358.50;1612.80;;;;;;4975415;28;20029;-85
2021/04/26 07:28:29;;;;;;;15.23;9.45;;;358.60;1587.20;;;;;;4990556;28;20038;-85
2021/04/26 07:30:55;;;;;;;17.90;8.50;;;358.60;1587.20;;;;;;5010778;28;20034;-87
2021/04/26 07:33:21;;;;;;;15.63;7.30;;;358.70;1587.20;;;;;;5016124;28;20120;-85
2021/04/26 07:35:47;;;;;;;16.63;7.97;;;358.90;1587.20;;;;;;5015568;28;20541;-85
2021/04/26 07:38:12;;;;;;;15.18;8.15;;;359.00;1536.00;;;;;;5016028;28;20420;-85
2021/04/26 07:40:39;;;;;;;17.70;8.32;;;359.10;1510.40;;;;;;5015663;28;20464;-85
2021/04/26 07:43:05;;;;;;;16.42;9.38;;;359.10;1536.00;;;;;;4999051;28;20027;-85
2021/04/26 07:45:31;;;;;;;11.52;7.30;;;359.10;1510.40;;;;;;5015218;28;20021;-86
2021/04/26 07:47:57;;;;;;;13.93;7.80;;;359.10;1536.00;;;;;;5015447;28;20026;-85
2021/04/26 07:50:25;;;;;;;17.52;9.43;;;384.00;1510.40;;;;;;5016645;28;20331;-85
2021/04/26 07:52:51;;;;;;;11.50;6.30;;;384.20;1484.80;;;;;;5015332;28;20026;-85
2021/04/26 07:55:18;;;;;;;14.65;9.48;;;384.10;1484.80;;;;;;5014909;28;20025;-85
2021/04/26 07:57:44;;;;;;;12.90;7.47;;;384.40;1484.80;;;;;;5015297;28;20025;-84
2021/04/26 08:00:11;;;;;;;11.48;6.75;;;384.50;1433.60;;;;;;5014859;28;20401;-85
2021/04/26 08:02:37;;;;;;;13.65;8.05;;;384.60;1459.20;;;;;;5016334;28;20033;-85
2021/04/26 08:05:03;;;;;;;10.55;6.65;;;384.50;1433.60;;;;;;5016284;28;20026;-86
2021/04/26 08:07:29;;;;;;;10.07;6.43;;;384.30;1408.00;;;;;;5015601;28;20017;-86
2021/04/26 08:09:55;;;;;;;9.48;5.45;;;384.70;1408.00;;;;;;5015053;28;20449;-85
2021/04/26 08:12:21;;;;;;;8.98;5.63;;;384.90;1382.40;;;;;;5018022;28;20046;-85
2021/04/26 08:14:48;;;;;;;12.23;6.25;;;409.60;1408.00;;;;;;5031247;28;20052;-85
2021/04/26 08:17:14;;;;;;;11.57;6.65;;;409.70;1408.00;;;;;;5017624;28;20036;-86
2021/04/26 08:19:41;;;;;;;10.73;6.20;;;409.80;1382.40;;;;;;5038754;28;20025;-82
2021/04/26 08:22:08;;;;;;;11.88;6.03;;;409.90;1382.40;;;;;;5037454;28;20037;-80
2021/04/26 08:24:34;;;;;;;14.13;6.97;;;410.20;1356.80;;;;;;5036700;28;20017;-82
2021/04/26 08:27:00;;;;;;;10.88;5.43;;;410.20;1356.80;;;;;;5037260;28;20027;-84
2021/04/26 08:29:26;;;;;;;13.00;6.53;;;410.30;1356.80;;;;;;5055675;28;20364;-84
2021/04/26 08:31:53;;;;;;;11.95;8.77;;;410.30;1356.80;;;;;;5036123;28;20071;-82
2021/04/26 08:34:18;;;;;;;12.02;6.88;;;410.50;1331.20;;;;;;5054912;28;20032;-77
2021/04/26 08:36:44;;;;;;;11.13;6.47;;;435.40;1305.60;;;;;;5036284;28;20025;-75
2021/04/26 08:39:10;;;;;;;10.43;6.40;;;435.70;1356.80;;;;;;5037016;28;20016;-80
2021/04/26 08:41:40;;;;;;;12.02;6.75;;;460.80;1331.20;;;;;;5036904;28;20033;-80
2021/04/26 08:44:06;;;;;;;12.13;7.25;;;436.10;1254.40;;;;;;5036994;28;20108;-84
2021/04/26 08:46:32;;;;;;;9.98;6.25;;;460.80;1228.80;;;;;;5055092;28;20143;-80
2021/04/26 08:48:58;;;;;;;16.05;7.38;;;460.90;1228.80;;;;;;5054748;28;20020;-80
2021/04/26 08:51:24;;;;;;;13.23;6.80;;;461.10;1203.20;;;;;;5035912;28;20021;-79
2021/04/26 08:53:50;;;;;;;13.23;7.30;;;461.40;1203.20;;;;;;5036936;28;20453;-77
2021/04/26 08:56:16;;;;;;;15.32;8.27;;;461.40;1177.60;;;;;;5036357;28;20021;-79
2021/04/26 08:58:43;;;;;;;12.70;7.55;;;461.50;1177.60;;;;;;5035762;28;20025;-84
2021/04/26 09:01:09;;;;;;;11.43;6.15;;;461.70;1203.20;;;;;;5036979;28;20124;-80
2021/04/26 09:03:37;;;;;;;8.13;5.43;;;486.40;1203.20;;;;;;5035141;28;20116;-80
2021/04/26 09:06:07;;;;;;;12.55;6.50;;;486.40;1177.60;;;;;;5054016;28;20020;-78
2021/04/26 09:08:33;;;;;;;12.90;5.65;;;486.50;1177.60;;;;;;5036510;28;20083;-81
2021/04/26 09:11:04;;;;;;;9.43;5.43;;;486.70;1152.00;;;;;;5036703;28;20025;-78
2021/04/26 09:13:45;;;;;;;10.65;6.53;;;486.80;1177.60;;;;;;5036663;28;20052;-78
2021/04/26 09:16:16;;;;;;;10.50;6.78;;;486.80;1152.00;;;;;;5036059;28;20087;-80
2021/04/26 09:18:45;;;;;;;13.25;7.63;;;486.90;1126.40;;;;;;5036727;28;20037;-75
2021/04/26 09:21:16;;;;;;;10.70;6.97;;;487.00;1126.40;;;;;;5034958;28;20024;-77
2021/04/26 09:23:43;;;;;;;11.05;7.85;;;487.00;1126.40;;;;;;5052476;28;20075;-77
2021/04/26 09:26:28;;;;;;;18.02;9.68;;;487.30;1152.00;;;;;;5052344;28;20345;-78
2021/04/26 09:29:23;;;;;;;13.00;8.32;;;512.00;1126.40;;;;;;5054609;28;20057;-78
2021/04/26 09:32:17;;;;;;;9.18;6.50;;;512.10;1100.80;;;;;;5052848;28;20056;-80
2021/04/26 09:34:48;;;;;;;9.73;6.40;;;512.10;1075.20;;;;;;5053058;28;20106;-80
2021/04/26 09:37:21;;;;;;;13.43;7.18;;;487.30;1075.20;;;;;;5052600;28;20487;-76
2021/04/26 09:40:07;;;;;;;14.93;8.82;;;512.40;1100.80;;;;;;5054224;28;20087;-79
2021/04/26 09:42:46;;;;;;;19.88;9.18;;;512.60;1100.80;;;;;;5052771;28;20082;-77
2021/04/26 09:45:22;;;;;;;17.90;12.10;;;512.70;1100.80;;;;;;5052752;28;20024;-78
2021/04/26 09:48:11;;;;;;;12.95;7.10;;;512.90;1100.80;;;;;;5036160;28;20466;-79
2021/04/26 09:51:04;;;;;;;13.40;7.07;;;512.90;1075.20;;;;;;5053516;28;20024;-83
2021/04/26 09:53:33;;;;;;;13.60;9.35;;;512.90;1024.00;;;;;;5053690;28;20028;-79
2021/04/26 09:56:13;;;;;;;12.60;8.85;;;512.50;1075.20;;;;;;5053199;28;20034;-79
2021/04/26 09:58:41;;;;;;;17.05;11.50;;;512.80;1126.40;;;;;;5052764;28;20475;-79
2021/04/26 10:01:07;;;;;;;17.00;10.13;;;512.90;1100.80;;;;;;5035932;28;20032;-77
2021/04/26 10:03:33;;;;;;;18.73;11.30;;;538.00;1126.40;;;;;;5053114;28;20056;-78
2021/04/26 10:05:59;;;;;;;17.50;10.30;;;538.30;1126.40;;;;;;5053800;28;20474;-82
2021/04/26 10:08:26;;;;;;;15.57;9.50;;;563.20;1152.00;;;;;;5053709;28;20021;-78
2021/04/26 10:10:53;;;;;;;15.68;9.20;;;563.40;1152.00;;;;;;5054040;28;20021;-77
2021/04/26 10:13:21;;;;;;;20.50;12.18;;;563.40;1100.80;;;;;;5051973;28;20045;-78
2021/04/26 10:15:59;;;;;;;13.70;8.98;;;563.50;1100.80;;;;;;5035843;28;20029;-79
2021/04/26 10:18:40;;;;;;;20.95;13.40;;;563.20;1100.80;;;;;;5055259;28;20104;-80
2021/04/26 10:21:33;;;;;;;20.33;14.90;;;563.20;1100.80;;;;;;5039813;28;20033;-79
2021/04/26 10:24:14;;;;;;;19.23;12.43;;;563.50;1100.80;;;;;;5054282;28;20036;-79
2021/04/26 10:26:40;;;;;;;18.98;13.20;;;563.90;1075.20;;;;;;5039759;28;20032;-79
2021/04/26 10:29:11;;;;;;;16.42;11.98;;;564.10;1075.20;;;;;;5056478;28;20021;-79
2021/04/26 10:32:00;;;;;;;26.60;13.07;;;588.80;1049.60;;;;;;5041556;28;20032;-79
2021/04/26 10:34:39;;;;;;;14.00;9.43;;;588.90;1049.60;;;;;;5039394;28;20116;-80
2021/04/26 10:37:31;;;;;;;14.05;9.75;;;589.10;1024.00;;;;;;5054657;28;20472;-82
2021/04/26 10:39:57;;;;;;;22.83;10.85;;;588.90;1024.00;;;;;;5034044;28;20025;-80
2021/04/26 10:42:48;;;;;;;13.52;9.02;;;589.20;1075.20;;;;;;5038744;28;20033;-82
2021/04/26 10:45:13;;;;;;;20.55;14.10;;;589.00;1024.00;;;;;;5039431;28;20029;-81
2021/04/26 10:47:43;;;;;;;17.27;10.88;;;589.00;1049.60;;;;;;5038802;28;20116;-80
2021/04/26 10:50:09;;;;;;;25.33;16.50;;;589.00;1049.60;;;;;;5039887;28;20110;-80
2021/04/26 10:52:40;;;;;;;23.40;12.52;;;589.00;1049.60;;;;;;5039373;28;20427;-80
2021/04/26 10:55:09;;;;;;;23.45;11.73;;;589.10;1049.60;;;;;;5056984;28;20453;-81
2021/04/26 10:57:42;;;;;;;12.13;8.77;;;589.40;1075.20;;;;;;5039222;28;20453;-82
2021/04/26 11:00:23;;;;;;;16.08;11.20;;;589.20;1024.00;;;;;;5038449;28;20087;-81
2021/04/26 11:02:59;;;;;;;16.92;10.65;;;588.90;1049.60;;;;;;5037533;28;20144;-79
2021/04/26 11:05:30;;;;;;;22.65;11.25;;;588.90;1075.20;;;;;;5039429;28;20025;-80
2021/04/26 11:08:03;;;;;;;17.13;9.73;;;564.10;1075.20;;;;;;5055499;28;20515;-78
2021/04/26 11:10:32;;;;;;;15.05;10.73;;;564.10;1100.80;;;;;;5057058;28;20021;-79
2021/04/26 11:13:02;;;;;;;20.30;10.20;;;564.10;1100.80;;;;;;5037090;28;20381;-79
2021/04/26 11:15:28;;;;;;;15.10;8.02;;;564.10;1075.20;;;;;;5038553;28;20029;-80
2021/04/26 11:17:55;;;;;;;10.77;7.47;;;563.70;1075.20;;;;;;5055884;28;20052;-78
2021/04/26 11:20:23;;;;;;;19.35;9.88;;;563.90;1075.20;;;;;;5054959;28;20059;-78
2021/04/26 11:22:58;;;;;;;14.02;7.95;;;564.10;1075.20;;;;;;5056238;28;20039;-77
2021/04/26 11:25:39;;;;;;;15.93;8.55;;;563.90;1049.60;;;;;;5055342;28;20341;-78
2021/04/26 11:28:08;;;;;;;14.20;7.93;;;563.90;1049.60;;;;;;5056032;28;20017;-86
2021/04/26 11:30:36;;;;;;;15.95;7.95;;;564.10;1049.60;;;;;;5054309;28;20024;-79
2021/04/26 11:33:04;;;;;;;16.55;9.13;;;588.90;1024.00;;;;;;5053588;28;20131;-76
2021/04/26 11:35:31;;;;;;;21.40;9.57;;;589.00;1049.60;;;;;;5036821;28;20025;-76
2021/04/26 11:37:58;;;;;;;19.77;9.43;;;589.20;1024.00;;;;;;5035098;28;20024;-77
2021/04/26 11:40:27;;;;;;;17.25;8.13;;;589.00;1049.60;;;;;;5055381;28;20021;-76
2021/04/26 11:43:05;;;;;;;13.15;8.00;;;564.00;1024.00;;;;;;5037364;28;20029;-75
2021/04/26 11:45:31;;;;;;;12.50;7.72;;;588.90;1049.60;;;;;;5056043;28;20023;-76
2021/04/26 11:47:57;;;;;;;19.10;8.10;;;588.90;1024.00;;;;;;5037681;28;20130;-75
2021/04/26 11:50:23;;;;;;;15.95;7.95;;;589.00;998.40;;;;;;5054283;28;20025;-76
2021/04/26 11:52:49;;;;;;;15.90;8.07;;;589.00;1049.60;;;;;;5038136;28;20479;-78
2021/04/26 11:55:19;;;;;;;11.68;7.78;;;589.00;1049.60;;;;;;5037203;28;20021;-78
2021/04/26 11:57:46;;;;;;;11.40;7.35;;;588.90;1049.60;;;;;;5055019;28;20025;-76
2021/04/26 12:00:32;;;;;;;14.85;7.85;;;588.80;1049.60;;;;;;5038076;28;20445;-76
2021/04/26 12:03:02;;;;;;;17.20;8.15;;;564.10;1049.60;;;;;;5037791;28;20045;-78
2021/04/26 12:05:28;;;;;;;14.15;8.88;;;564.10;1049.60;;;;;;5053383;28;20051;-78
2021/04/26 12:07:55;;;;;;;15.15;7.13;;;589.00;1024.00;;;;;;5036889;28;20029;-77
2021/04/26 12:10:26;;;;;;;10.52;7.00;;;589.10;1049.60;;;;;;5035749;28;20025;-76
2021/04/26 12:13:02;;;;;;;14.25;7.07;;;589.60;1049.60;;;;;;5037323;28;20040;-80
2021/04/26 12:15:29;;;;;;;14.65;7.45;;;589.60;998.40;;;;;;5036544;28;20094;-80
2021/04/26 12:17:57;;;;;;;16.10;7.57;;;589.50;998.40;;;;;;5055083;28;20025;-79
2021/04/26 12:20:25;;;;;;;14.52;7.93;;;589.50;998.40;;;;;;5035419;28;20108;-78
2021/04/26 12:22:54;;;;;;;14.88;8.25;;;589.60;998.40;;;;;;5038123;28;20511;-78
2021/04/26 12:25:22;;;;;;;15.13;7.35;;;614.40;1024.00;;;;;;5054171;28;20028;-77
2021/04/26 12:27:58;;;;;;;12.80;7.43;;;589.70;972.80;;;;;;5037710;28;20514;-81
2021/04/26 12:30:24;;;;;;;14.02;7.32;;;614.50;998.40;;;;;;5037847;28;20043;-78
2021/04/26 12:32:50;;;;;;;12.57;7.35;;;614.40;998.40;;;;;;5054942;28;20107;-77
2021/04/26 12:35:28;;;;;;;12.45;7.32;;;589.60;998.40;;;;;;5054006;28;20035;-77
2021/04/26 12:37:59;;;;;;;15.48;8.30;;;589.40;1024.00;;;;;;5054665;28;20025;-77
2021/04/26 12:40:31;;;;;;;12.30;6.53;;;589.40;998.40;;;;;;5053627;28;20020;-78
2021/04/26 12:42:57;;;;;;;16.88;10.85;;;589.50;998.40;;;;;;5036744;28;20059;-78
2021/04/26 12:45:35;;;;;;;17.60;8.38;;;589.70;1049.60;;;;;;5055346;28;20020;-79
2021/04/26 12:48:07;;;;;;;18.33;8.25;;;589.70;1024.00;;;;;;5037086;28;20028;-77
2021/04/26 12:50:45;;;;;;;16.40;9.35;;;614.40;1024.00;;;;;;5037109;28;20021;-79
2021/04/26 12:53:26;;;;;;;13.77;8.23;;;614.40;1024.00;;;;;;5037281;28;20139;-77
2021/04/26 12:56:02;;;;;;;14.10;8.40;;;589.70;1024.00;;;;;;5054652;28;20028;-79
2021/04/26 12:58:29;;;;;;;12.95;6.63;;;589.50;1024.00;;;;;;5037127;28;20051;-79
2021/04/26 13:00:59;;;;;;;18.83;9.15;;;589.40;1049.60;;;;;;5036784;28;20070;-79
2021/04/26 13:03:29;;;;;;;21.92;8.45;;;589.20;1049.60;;;;;;5036877;28;20094;-78
2021/04/26 13:06:05;;;;;;;20.08;8.77;;;589.20;1049.60;;;;;;5036844;28;20051;-80
2021/04/26 13:08:31;;;;;;;20.25;13.52;;;589.10;1075.20;;;;;;5036491;28;20036;-78
2021/04/26 13:10:59;;;;;;;21.85;14.80;;;589.00;1049.60;;;;;;5036445;28;20032;-78
2021/04/26 13:13:26;;;;;;;42.08;32.95;;;588.80;1049.60;;;;;;5036609;28;20424;-79
2021/04/26 13:15:51;;;;;;;23.60;16.05;;;589.10;1075.20;;;;;;5036453;28;20021;-79
2021/04/26 13:18:20;;;;;;;17.42;12.73;;;564.10;1075.20;;;;;;5036543;28;20119;-79
2021/04/26 13:20:56;;;;;;;16.25;9.73;;;564.10;1100.80;;;;;;5036293;28;20021;-79
2021/04/26 13:23:25;;;;;;;18.25;9.45;;;564.00;1075.20;;;;;;5036476;28;20456;-78
2021/04/26 13:25:52;;;;;;;21.45;12.32;;;563.90;1075.20;;;;;;5036457;28;20452;-80
2021/04/26 13:28:26;;;;;;;24.42;11.75;;;563.80;1075.20;;;;;;5036159;28;20032;-81
2021/04/26 13:30:53;;;;;;;14.02;9.60;;;563.80;1100.80;;;;;;5054090;28;20100;-78
2021/04/26 13:33:18;;;;;;;19.27;12.32;;;563.80;1100.80;;;;;;5036348;28;20025;-79
2021/04/26 13:35:44;;;;;;;24.63;13.98;;;563.70;1100.80;;;;;;5036014;28;20024;-79
2021/04/26 13:38:10;;;;;;;14.82;10.80;;;563.60;1100.80;;;;;;5036881;28;20064;-79
2021/04/26 13:40:36;;;;;;;13.50;9.43;;;563.40;1100.80;;;;;;5036092;28;20366;-78
2021/04/26 13:43:02;;;;;;;16.85;9.63;;;563.40;1126.40;;;;;;5035755;28;20112;-80
2021/04/26 13:45:28;;;;;;;12.98;7.72;;;563.30;1126.40;;;;;;5035794;28;20035;-77
2021/04/26 13:47:54;;;;;;;16.60;10.85;;;563.20;1126.40;;;;;;5036456;28;20021;-79
2021/04/26 13:50:20;;;;;;;16.30;10.57;;;538.50;1100.80;;;;;;5034524;28;20437;-79
2021/04/26 13:52:46;;;;;;;17.73;8.23;;;538.40;1126.40;;;;;;5036085;28;20032;-77
2021/04/26 13:55:12;;;;;;;16.02;8.27;;;538.40;1126.40;;;;;;5035246;28;20402;-79
2021/04/26 13:57:38;;;;;;;29.10;10.02;;;538.20;1126.40;;;;;;5035660;28;20060;-82
2021/04/26 14:00:06;;;;;;;19.05;12.32;;;538.20;1152.00;;;;;;5035577;28;20102;-77
2021/04/26 14:02:32;;;;;;;18.60;12.60;;;538.20;1152.00;;;;;;5053491;28;20400;-78